createdAt,value
2022-08-07T00:00:28.092Z,18.30
2022-08-07T00:02:57.052Z,18.30
2022-08-07T00:05:26.614Z,18.30
2022-08-07T00:07:59.744Z,18.30
2022-08-07T00:10:29.690Z,18.20
2022-08-07T00:13:02.166Z,18.20
2022-08-07T00:15:36.195Z,18.20
2022-08-07T00:18:19.231Z,18.10
2022-08-07T00:20:49.447Z,18.10
2022-08-07T00:23:18.282Z,18.10
2022-08-07T00:25:52.140Z,18.00
2022-08-07T00:28:33.686Z,17.90
2022-08-07T00:31:06.460Z,17.90
2022-08-07T00:33:42.315Z,17.90
2022-08-07T00:36:10.824Z,17.90
2022-08-07T00:38:40.265Z,17.90
2022-08-07T00:41:10.026Z,17.90
2022-08-07T00:43:59.338Z,17.90
2022-08-07T00:46:32.994Z,17.90
2022-08-07T00:49:03.299Z,17.80
2022-08-07T00:51:58.767Z,17.80
2022-08-07T00:54:20.584Z,17.80
2022-08-07T00:56:52.045Z,17.70
2022-08-07T00:59:35.449Z,17.70
2022-08-07T01:02:14.183Z,17.60
2022-08-07T01:04:58.196Z,17.60
2022-08-07T01:07:30.832Z,17.50
2022-08-07T01:10:07.125Z,17.50
2022-08-07T01:12:39.785Z,17.40
2022-08-07T01:15:22.462Z,17.40
2022-08-07T01:18:06.133Z,17.40
2022-08-07T01:20:57.465Z,17.40
2022-08-07T01:23:38.612Z,17.40
2022-08-07T01:26:13.076Z,17.40
2022-08-07T01:28:48.295Z,17.40
2022-08-07T01:31:27.813Z,17.40
2022-08-07T01:34:10.507Z,17.30
2022-08-07T01:36:44.144Z,17.20
2022-08-07T01:39:19.513Z,17.20
2022-08-07T01:42:36.878Z,17.30
2022-08-07T01:44:47.793Z,17.30
2022-08-07T01:48:20.175Z,17.30
2022-08-07T01:50:06.140Z,17.30
2022-08-07T01:52:35.947Z,17.10
2022-08-07T01:55:08.845Z,17.00
2022-08-07T01:58:05.832Z,17.00
2022-08-07T02:00:48.961Z,17.00
2022-08-07T02:03:31.986Z,17.10
2022-08-07T02:06:31.197Z,17.10
2022-08-07T02:09:11.663Z,17.00
2022-08-07T02:12:17.823Z,17.00
2022-08-07T02:14:57.904Z,17.00
2022-08-07T02:17:34.351Z,17.00
2022-08-07T02:20:09.416Z,16.90
2022-08-07T02:22:47.349Z,16.80
2022-08-07T02:26:10.030Z,16.70
2022-08-07T02:28:25.473Z,16.60
2022-08-07T02:30:58.627Z,16.50
2022-08-07T02:33:41.844Z,16.50
2022-08-07T02:36:28.872Z,16.50
2022-08-07T02:39:15.980Z,16.50
2022-08-07T02:41:54.619Z,16.50
2022-08-07T02:44:34.606Z,16.40
2022-08-07T02:47:06.258Z,16.40
2022-08-07T02:49:58.020Z,16.40
2022-08-07T02:52:40.362Z,16.50
2022-08-07T02:55:28.491Z,16.50
2022-08-07T02:58:13.006Z,16.40
2022-08-07T03:00:47.022Z,16.30
2022-08-07T03:03:22.886Z,16.30
2022-08-07T03:05:55.331Z,16.20
2022-08-07T03:08:26.926Z,16.20
2022-08-07T03:11:01.251Z,16.20
2022-08-07T03:13:38.986Z,16.20
2022-08-07T03:16:22.926Z,16.10
2022-08-07T03:18:57.578Z,16.10
2022-08-07T03:21:27.423Z,16.10
2022-08-07T03:24:20.754Z,16.00
2022-08-07T03:26:51.083Z,16.00
2022-08-07T03:29:27.968Z,15.90
2022-08-07T03:31:58.824Z,15.90
2022-08-07T03:34:29.385Z,16.00
2022-08-07T03:37:12.510Z,16.00
2022-08-07T03:39:59.095Z,15.90
2022-08-07T03:42:35.590Z,15.90
2022-08-07T03:45:06.605Z,15.90
2022-08-07T03:47:47.615Z,15.90
2022-08-07T03:50:23.295Z,15.90
2022-08-07T03:52:53.691Z,15.90
2022-08-07T03:55:23.542Z,15.80
2022-08-07T03:59:05.270Z,15.70
2022-08-07T04:01:02.752Z,15.80
2022-08-07T04:03:49.870Z,15.70
2022-08-07T04:06:37.171Z,15.70
2022-08-07T04:09:14.967Z,15.70
2022-08-07T04:12:21.124Z,15.60
2022-08-07T04:14:43.661Z,15.60
2022-08-07T04:17:20.995Z,15.50
2022-08-07T04:19:55.155Z,15.50
2022-08-07T04:22:29.772Z,15.50
2022-08-07T04:25:02.490Z,15.50
2022-08-07T04:27:35.552Z,15.60
2022-08-07T04:30:21.628Z,15.70
2022-08-07T04:33:02.442Z,15.70
2022-08-07T04:35:38.473Z,15.70
2022-08-07T04:38:13.362Z,15.80
2022-08-07T04:40:52.832Z,15.70
2022-08-07T04:44:10.082Z,15.60
2022-08-07T04:46:34.812Z,15.40
2022-08-07T04:49:19.994Z,15.30
2022-08-07T04:52:04.066Z,15.30
2022-08-07T04:54:37.093Z,15.30
2022-08-07T04:58:15.000Z,15.40
2022-08-07T05:00:14.285Z,15.40
2022-08-07T05:02:55.479Z,15.50
2022-08-07T05:05:52.686Z,15.50
2022-08-07T05:08:59.199Z,15.50
2022-08-07T05:11:57.075Z,15.50
2022-08-07T05:14:52.168Z,15.50
2022-08-07T05:17:52.480Z,15.60
2022-08-07T05:20:12.843Z,15.60
2022-08-07T05:22:44.524Z,15.60
2022-08-07T05:25:26.335Z,15.60
2022-08-07T05:28:20.352Z,15.60
2022-08-07T05:30:53.212Z,15.60
2022-08-07T05:33:22.247Z,15.70
2022-08-07T05:35:52.730Z,15.70
2022-08-07T05:39:01.106Z,15.80
2022-08-07T05:41:15.800Z,15.90
2022-08-07T05:44:12.345Z,15.90
2022-08-07T05:46:39.335Z,16.00
2022-08-07T05:49:12.416Z,16.00
2022-08-07T05:51:46.377Z,16.10
2022-08-07T05:54:31.476Z,16.10
2022-08-07T05:57:08.857Z,16.20
2022-08-07T05:59:55.740Z,16.30
2022-08-07T06:02:31.105Z,16.40
2022-08-07T06:05:06.908Z,16.50
2022-08-07T06:08:29.331Z,16.50
2022-08-07T06:10:26.451Z,16.60
2022-08-07T06:12:56.187Z,16.70
2022-08-07T06:15:39.043Z,16.80
2022-08-07T06:18:15.063Z,16.90
2022-08-07T06:20:50.745Z,16.90
2022-08-07T06:24:38.779Z,16.90
2022-08-07T06:26:27.600Z,16.90
2022-08-07T06:29:01.122Z,17.00
2022-08-07T06:31:46.483Z,17.10
2022-08-07T06:34:21.603Z,17.20
2022-08-07T06:36:51.809Z,17.30
2022-08-07T06:40:17.476Z,17.30
2022-08-07T06:42:17.497Z,17.40
2022-08-07T06:45:18.223Z,17.50
2022-08-07T06:47:58.539Z,17.60
2022-08-07T06:50:35.998Z,17.60
2022-08-07T06:53:49.313Z,17.70
2022-08-07T06:56:02.108Z,17.70
2022-08-07T06:58:36.209Z,17.80
2022-08-07T07:01:16.582Z,17.80
2022-08-07T07:03:48.261Z,17.90
2022-08-07T07:06:26.242Z,17.90
2022-08-07T07:08:56.799Z,18.00
2022-08-07T07:12:09.035Z,18.10
2022-08-07T07:14:17.429Z,18.20
2022-08-07T07:16:50.983Z,18.20
2022-08-07T07:19:56.101Z,18.30
2022-08-07T07:22:36.117Z,18.30
2022-08-07T07:26:31.054Z,18.30
2022-08-07T07:28:02.639Z,18.30
2022-08-07T07:30:41.652Z,18.40
2022-08-07T07:33:14.730Z,18.50
2022-08-07T07:36:03.924Z,18.60
2022-08-07T07:38:35.006Z,18.60
2022-08-07T07:41:08.821Z,18.60
2022-08-07T07:44:14.717Z,18.80
2022-08-07T07:46:38.175Z,18.90
2022-08-07T07:50:33.456Z,18.90
2022-08-07T07:52:13.834Z,19.00
2022-08-07T07:54:51.351Z,19.10
2022-08-07T07:57:43.645Z,19.10
2022-08-07T08:00:12.183Z,19.20
2022-08-07T08:03:05.170Z,19.30
2022-08-07T08:05:50.588Z,19.30
2022-08-07T08:08:35.374Z,19.20
2022-08-07T08:11:08.548Z,19.20
2022-08-07T08:13:53.408Z,19.30
2022-08-07T08:16:30.115Z,19.40
2022-08-07T08:19:18.187Z,19.50
2022-08-07T08:22:10.594Z,19.60
2022-08-07T08:25:19.132Z,19.80
2022-08-07T08:27:57.563Z,19.90
2022-08-07T08:30:32.010Z,20.00
2022-08-07T08:33:03.038Z,20.10
2022-08-07T08:35:39.480Z,20.20
2022-08-07T08:38:19.700Z,20.20
2022-08-07T08:40:57.121Z,20.20
2022-08-07T08:43:42.251Z,20.30
2022-08-07T08:46:17.934Z,20.40
2022-08-07T08:48:56.524Z,20.40
2022-08-07T08:52:00.892Z,20.40
2022-08-07T08:54:25.461Z,20.40
2022-08-07T08:56:55.670Z,20.40
2022-08-07T08:59:30.222Z,20.50
2022-08-07T09:02:34.570Z,20.50
2022-08-07T09:05:26.423Z,20.60
2022-08-07T09:08:10.311Z,20.70
2022-08-07T09:10:45.946Z,20.80
2022-08-07T09:13:36.979Z,20.80
2022-08-07T09:16:22.880Z,20.80
2022-08-07T09:19:51.133Z,20.80
2022-08-07T09:22:40.029Z,20.80
2022-08-07T09:25:17.563Z,20.90
2022-08-07T09:28:00.515Z,21.00
2022-08-07T09:30:44.180Z,21.00
2022-08-07T09:33:52.423Z,21.10
2022-08-07T09:36:27.018Z,21.10
2022-08-07T09:39:11.559Z,21.20
2022-08-07T09:42:07.732Z,21.20
2022-08-07T09:47:25.996Z,21.20
2022-08-07T09:47:56.016Z,21.20
2022-08-07T09:50:40.012Z,21.30
2022-08-07T09:53:12.498Z,21.40
2022-08-07T09:56:04.612Z,21.50
2022-08-07T09:59:14.077Z,21.70
2022-08-07T10:02:09.686Z,21.70
2022-08-07T10:05:12.523Z,21.70
2022-08-07T10:07:58.677Z,21.70
2022-08-07T10:11:16.358Z,21.70
2022-08-07T10:14:00.410Z,21.80
2022-08-07T10:17:01.758Z,21.80
2022-08-07T10:19:44.031Z,21.90
2022-08-07T10:22:36.590Z,22.00
2022-08-07T10:25:22.563Z,22.20
2022-08-07T10:28:04.411Z,22.20
2022-08-07T10:30:44.218Z,22.20
2022-08-07T10:34:06.112Z,22.20
2022-08-07T10:36:41.300Z,22.20
2022-08-07T10:39:19.803Z,22.40
2022-08-07T10:42:09.319Z,22.50
2022-08-07T10:44:51.495Z,22.60
2022-08-07T10:47:53.241Z,22.70
2022-08-07T10:50:25.964Z,22.80
2022-08-07T10:53:08.050Z,22.90
2022-08-07T10:55:45.137Z,23.00
2022-08-07T10:58:36.744Z,23.10
2022-08-07T11:01:35.856Z,23.00
2022-08-07T11:04:37.524Z,23.10
2022-08-07T11:07:57.032Z,23.00
2022-08-07T11:10:11.327Z,23.00
2022-08-07T11:12:45.872Z,23.10
2022-08-07T11:15:26.287Z,22.90
2022-08-07T11:18:05.363Z,22.80
2022-08-07T11:20:43.092Z,22.90
2022-08-07T11:23:30.282Z,23.00
2022-08-07T11:26:06.805Z,23.10
2022-08-07T11:28:40.238Z,23.10
2022-08-07T11:31:21.104Z,23.10
2022-08-07T11:34:00.571Z,23.00
2022-08-07T11:36:44.723Z,23.00
2022-08-07T11:39:39.704Z,23.00
2022-08-07T11:42:29.545Z,23.10
2022-08-07T11:45:12.203Z,23.20
2022-08-07T11:47:58.984Z,23.30
2022-08-07T11:50:44.606Z,23.20
2022-08-07T11:53:43.364Z,23.20
2022-08-07T11:56:53.092Z,23.10
2022-08-07T12:00:10.042Z,23.00
2022-08-07T12:03:41.783Z,23.00
2022-08-07T12:06:39.775Z,23.00
2022-08-07T12:09:16.688Z,23.10
2022-08-07T12:12:09.798Z,23.10
2022-08-07T12:14:55.491Z,23.20
2022-08-07T12:17:35.531Z,23.20
2022-08-07T12:20:18.511Z,23.20
2022-08-07T12:23:17.831Z,23.30
2022-08-07T12:26:06.139Z,23.40
2022-08-07T12:29:00.620Z,23.50
2022-08-07T12:31:53.032Z,23.50
2022-08-07T12:34:27.447Z,23.60
2022-08-07T12:36:58.888Z,23.70
2022-08-07T12:39:44.401Z,23.80
2022-08-07T12:42:22.892Z,23.90
2022-08-07T12:44:59.671Z,24.00
2022-08-07T12:47:40.647Z,24.20
2022-08-07T12:50:33.761Z,24.30
2022-08-07T12:53:18.132Z,24.40
2022-08-07T12:56:02.857Z,24.50
2022-08-07T12:58:37.541Z,24.70
2022-08-07T13:01:19.455Z,24.80
2022-08-07T13:04:02.432Z,24.90
2022-08-07T13:07:00.126Z,25.00
2022-08-07T13:10:20.150Z,24.80
2022-08-07T13:12:47.439Z,24.90
2022-08-07T13:15:31.951Z,25.20
2022-08-07T13:18:26.210Z,25.50
2022-08-07T13:21:02.754Z,25.60
2022-08-07T13:24:01.086Z,25.50
2022-08-07T13:26:33.514Z,25.60
2022-08-07T13:29:12.456Z,25.70
2022-08-07T13:31:57.717Z,25.80
2022-08-07T13:34:39.109Z,25.80
2022-08-07T13:37:24.299Z,25.90
2022-08-07T13:40:36.026Z,26.00
2022-08-07T13:42:53.643Z,25.90
2022-08-07T13:46:11.104Z,26.10
2022-08-07T13:48:27.407Z,26.30
2022-08-07T13:51:20.453Z,26.50
2022-08-07T13:53:59.605Z,26.60
2022-08-07T13:56:35.683Z,26.90
2022-08-07T13:59:13.454Z,27.10
2022-08-07T14:01:51.551Z,27.10
2022-08-07T14:04:48.952Z,27.30
2022-08-07T14:07:27.307Z,27.40
2022-08-07T14:10:14.966Z,27.60
2022-08-07T14:12:54.993Z,27.70
2022-08-07T14:15:36.556Z,27.70
2022-08-07T14:18:24.139Z,27.60
2022-08-07T14:21:08.244Z,27.40
2022-08-07T14:24:00.751Z,27.60
2022-08-07T14:26:37.555Z,28.10
2022-08-07T14:30:06.525Z,27.90
2022-08-07T14:32:02.748Z,28.10
2022-08-07T14:34:34.363Z,28.00
2022-08-07T14:37:17.363Z,27.80
2022-08-07T14:40:16.079Z,28.00
2022-08-07T14:43:55.833Z,28.30
2022-08-07T14:45:48.920Z,28.30
2022-08-07T14:48:21.107Z,28.50
2022-08-07T14:50:53.418Z,28.70
2022-08-07T14:56:15.206Z,28.80
2022-08-07T14:59:04.443Z,29.00
2022-08-07T15:01:50.965Z,29.20
2022-08-07T15:04:25.211Z,29.30
2022-08-07T15:06:54.912Z,29.70
2022-08-07T15:12:25.918Z,30.90
2022-08-07T15:15:07.683Z,31.30
2022-08-07T15:20:54.729Z,31.80
2022-08-07T15:25:13.161Z,31.90
2022-08-07T15:32:05.096Z,33.50
2022-08-07T15:34:37.509Z,33.30
2022-08-07T15:37:27.959Z,33.30
2022-08-07T15:39:59.700Z,32.90
2022-08-07T15:42:51.561Z,32.50
2022-08-07T15:48:32.563Z,31.40
2022-08-07T15:51:10.111Z,30.40
2022-08-07T15:53:52.989Z,29.20
2022-08-07T15:56:33.360Z,28.70
2022-08-07T15:59:05.621Z,28.30
2022-08-07T16:01:40.474Z,28.00
2022-08-07T16:04:15.225Z,27.90
2022-08-07T16:06:50.724Z,27.60
2022-08-07T16:09:41.991Z,27.30
2022-08-07T16:12:29.181Z,27.10
2022-08-07T16:15:55.681Z,27.00
2022-08-07T16:18:50.418Z,26.90
2022-08-07T16:22:01.544Z,26.80
2022-08-07T16:24:02.163Z,26.80
2022-08-07T16:26:59.736Z,26.50
2022-08-07T16:30:11.033Z,26.40
2022-08-07T16:32:46.189Z,26.30
2022-08-07T16:35:52.404Z,26.40
2022-08-07T16:38:26.069Z,26.40
2022-08-07T16:41:41.702Z,26.30
2022-08-07T16:45:04.144Z,26.30
2022-08-07T16:48:00.031Z,26.20
2022-08-07T16:51:20.484Z,26.20
2022-08-07T16:54:06.054Z,26.10
2022-08-07T16:57:01.770Z,26.00
2022-08-07T16:59:45.753Z,26.00
2022-08-07T17:03:05.844Z,25.90
2022-08-07T17:06:22.489Z,25.80
2022-08-07T17:09:09.215Z,25.80
2022-08-07T17:12:04.679Z,25.70
2022-08-07T17:14:32.165Z,25.70
2022-08-07T17:17:07.461Z,25.70
2022-08-07T17:20:03.060Z,25.70
2022-08-07T17:22:39.042Z,25.70
2022-08-07T17:25:19.810Z,25.60
2022-08-07T17:27:59.487Z,25.60
2022-08-07T17:30:33.048Z,25.60
2022-08-07T17:34:09.446Z,25.60
2022-08-07T17:36:20.235Z,25.60
2022-08-07T17:39:10.686Z,25.50
2022-08-07T17:42:04.531Z,25.40
2022-08-07T17:44:50.024Z,25.40
2022-08-07T17:47:41.773Z,25.40
2022-08-07T17:50:19.280Z,25.40
2022-08-07T17:52:59.779Z,25.30
2022-08-07T17:56:00.567Z,25.30
2022-08-07T17:58:34.089Z,25.30
2022-08-07T18:01:21.577Z,25.20
2022-08-07T18:04:16.711Z,25.20
2022-08-07T18:06:58.073Z,25.20
2022-08-07T18:10:04.579Z,25.20
2022-08-07T18:12:41.780Z,25.20
2022-08-07T18:15:18.955Z,25.20
2022-08-07T18:18:46.657Z,25.20
2022-08-07T18:21:05.802Z,25.10
2022-08-07T18:23:50.839Z,25.00
2022-08-07T18:26:45.877Z,25.00
2022-08-07T18:30:06.640Z,24.90
2022-08-07T18:32:25.737Z,24.80
2022-08-07T18:35:10.599Z,24.80
2022-08-07T18:38:55.822Z,24.70
2022-08-07T18:41:08.303Z,24.60
2022-08-07T18:43:50.033Z,24.60
2022-08-07T18:46:33.287Z,24.50
2022-08-07T18:50:19.686Z,24.60
2022-08-07T18:52:35.544Z,24.50
2022-08-07T18:55:41.173Z,24.50
2022-08-07T18:58:20.665Z,24.40
2022-08-07T19:00:59.369Z,24.30
2022-08-07T19:03:45.734Z,24.30
2022-08-07T19:06:22.186Z,24.30
2022-08-07T19:09:09.598Z,24.20
2022-08-07T19:12:15.495Z,24.10
2022-08-07T19:15:00.691Z,24.10
2022-08-07T19:17:59.149Z,24.10
2022-08-07T19:20:36.671Z,24.10
2022-08-07T19:23:17.880Z,24.00
2022-08-07T19:26:22.768Z,24.00
2022-08-07T19:30:53.875Z,23.90
2022-08-07T19:32:08.034Z,23.90
2022-08-07T19:34:33.839Z,23.80
2022-08-07T19:37:17.288Z,23.80
2022-08-07T19:39:56.421Z,23.80
2022-08-07T19:42:29.549Z,23.70
2022-08-07T19:45:07.994Z,23.70
2022-08-07T19:47:41.973Z,23.60
2022-08-07T19:50:41.311Z,23.60
2022-08-07T19:53:01.626Z,23.50
2022-08-07T19:55:57.521Z,23.40
2022-08-07T19:58:29.409Z,23.40
2022-08-07T20:00:59.446Z,23.40
2022-08-07T20:03:32.762Z,23.30
2022-08-07T20:06:05.417Z,23.30
2022-08-07T20:08:40.065Z,23.30
2022-08-07T20:11:34.267Z,23.20
2022-08-07T20:14:13.718Z,23.10
2022-08-07T20:16:54.543Z,23.10
2022-08-07T20:19:28.785Z,23.10
2022-08-07T20:22:17.781Z,23.10
2022-08-07T20:25:06.300Z,23.00
2022-08-07T20:27:43.079Z,23.00
2022-08-07T20:30:21.648Z,23.00
2022-08-07T20:32:54.647Z,22.90
2022-08-07T20:35:26.199Z,22.90
2022-08-07T20:37:59.521Z,22.90
2022-08-07T20:40:34.681Z,22.80
2022-08-07T20:43:14.704Z,22.80
2022-08-07T20:46:27.529Z,22.70
2022-08-07T20:49:54.075Z,22.70
2022-08-07T20:51:36.077Z,22.70
2022-08-07T20:54:11.756Z,22.60
2022-08-07T20:56:46.263Z,22.60
2022-08-07T21:00:05.460Z,22.60
2022-08-07T21:02:33.975Z,22.50
2022-08-07T21:05:16.400Z,22.50
2022-08-07T21:07:49.762Z,22.40
2022-08-07T21:10:29.532Z,22.30
2022-08-07T21:13:07.492Z,22.30
2022-08-07T21:15:48.127Z,22.30
2022-08-07T21:18:33.439Z,22.30
2022-08-07T21:21:04.072Z,22.20
2022-08-07T21:23:50.453Z,22.20
2022-08-07T21:26:35.033Z,22.10
2022-08-07T21:29:15.980Z,22.10
2022-08-07T21:32:43.681Z,22.10
2022-08-07T21:34:48.717Z,22.10
2022-08-07T21:37:22.648Z,22.10
2022-08-07T21:39:56.699Z,22.00
2022-08-07T21:42:42.435Z,22.00
2022-08-07T21:45:41.981Z,21.90
2022-08-07T21:48:27.964Z,21.80
2022-08-07T21:51:08.315Z,21.80
2022-08-07T21:53:52.985Z,21.80
2022-08-07T21:56:36.017Z,21.70
2022-08-07T21:59:10.009Z,21.60
2022-08-07T22:02:07.320Z,21.60
2022-08-07T22:04:51.168Z,21.60
2022-08-07T22:07:42.848Z,21.50
2022-08-07T22:10:18.806Z,21.50
2022-08-07T22:12:53.975Z,21.50
2022-08-07T22:16:43.982Z,21.40
2022-08-07T22:18:22.887Z,21.40
2022-08-07T22:20:55.838Z,21.30
2022-08-07T22:23:29.834Z,21.30
2022-08-07T22:26:06.148Z,21.30
2022-08-07T22:28:48.214Z,21.30
2022-08-07T22:31:59.107Z,21.30
2022-08-07T22:34:20.454Z,21.30
2022-08-07T22:37:09.345Z,21.30
2022-08-07T22:39:51.795Z,21.20
2022-08-07T22:42:54.063Z,21.20
2022-08-07T22:46:04.674Z,21.20
2022-08-07T22:48:31.602Z,21.10
2022-08-07T22:51:36.308Z,21.10
2022-08-07T22:54:20.171Z,21.10
2022-08-07T22:57:06.353Z,21.10
2022-08-07T22:59:51.920Z,21.10
2022-08-07T23:02:35.329Z,21.10
2022-08-07T23:06:09.520Z,21.10
2022-08-07T23:08:30.093Z,21.10
2022-08-07T23:11:13.190Z,21.10
2022-08-07T23:14:15.052Z,21.10
2022-08-07T23:17:01.326Z,21.10
2022-08-07T23:19:57.952Z,21.10
2022-08-07T23:22:56.681Z,21.00
2022-08-07T23:25:42.319Z,21.00
2022-08-07T23:28:28.340Z,20.90
2022-08-07T23:31:13.699Z,20.90
2022-08-07T23:34:33.935Z,20.90
2022-08-07T23:37:19.429Z,20.90
2022-08-07T23:40:04.567Z,20.90
2022-08-07T23:42:53.421Z,20.80
2022-08-07T23:46:01.621Z,20.70
2022-08-07T23:48:58.932Z,20.70
2022-08-07T23:53:00.908Z,20.70
2022-08-07T23:54:36.500Z,20.70
2022-08-07T23:57:24.586Z,20.60
